Time;durP1;ratioP1;P1;durP2;ratioP2;P2;SDS_P1;SDS_P2;PMS_P1;PMS_P2;Temp;Humidity;BMP_temperature;BMP_pressure;BME280_temperature;BME280_humidity;BME280_pressure;Samples;Min_cycle;Max_cycle;Signal;HPM_P1;HPM_P2
2022/07/16 00:02:59;;;;;;;;;;;;;;;23.07;32.97;96013.75;10502409;28;1959;-74
2022/07/16 00:08:00;;;;;;;;;;;;;;;23.07;33.35;96009.28;10500032;28;1918;-74
2022/07/16 00:13:02;;;;;;;;;;;;;;;23.07;33.26;96014.56;10520604;28;1879;-73
2022/07/16 00:23:21;;;;;;;;;;;;;;;23.09;33.07;96007.13;10517044;28;1789;-73
2022/07/16 00:28:23;;;;;;;;;;;;;;;23.10;33.18;96007.94;10513209;28;1972;-74
2022/07/16 00:33:23;;;;;;;;;;;;;;;23.09;33.29;96003.69;10536579;28;1922;-74
2022/07/16 00:38:24;;;;;;;;;;;;;;;23.09;33.41;95993.13;10514119;28;1871;-74
2022/07/16 00:43:25;;;;;;;;;;;;;;;23.11;33.30;95993.63;10521435;28;2128;-74
2022/07/16 00:48:25;;;;;;;;;;;;;;;23.13;33.33;96000.22;10521214;28;1984;-74
2022/07/16 00:53:25;;;;;;;;;;;;;;;23.13;33.43;95999.41;10513473;28;1914;-74
2022/07/16 00:58:26;;;;;;;;;;;;;;;23.12;33.56;96006.56;10497957;28;1826;-74
2022/07/16 01:03:26;;;;;;;;;;;;;;;23.10;33.58;96013.22;10514468;28;1842;-74
2022/07/16 01:08:26;;;;;;;;;;;;;;;23.14;33.74;96004.41;10514308;28;1945;-74
2022/07/16 01:13:28;;;;;;;;;;;;;;;23.16;33.73;96004.91;10517267;28;1839;-74
2022/07/16 01:18:30;;;;;;;;;;;;;;;23.17;33.97;96003.06;10517682;28;1876;-75
2022/07/16 01:23:32;;;;;;;;;;;;;;;23.19;33.95;96003.56;10520900;28;1906;-74
2022/07/16 01:28:37;;;;;;;;;;;;;;;23.20;33.75;96013.09;10517310;28;1938;-75
2022/07/16 01:33:39;;;;;;;;;;;;;;;23.20;33.89;96013.09;10508317;28;1826;-74
2022/07/16 01:38:51;;;;;;;;;;;;;;;23.20;33.86;96015.72;10519480;28;1857;-75
2022/07/16 01:43:53;;;;;;;;;;;;;;;23.20;34.22;96013.88;10503744;28;1894;-74
2022/07/16 01:48:53;;;;;;;;;;;;;;;23.20;34.04;96016.53;10525569;28;1955;-74
2022/07/16 01:53:55;;;;;;;;;;;;;;;23.18;34.23;96016.03;10526351;28;2275;-74
2022/07/16 01:58:55;;;;;;;;;;;;;;;23.16;34.02;96012.09;10508895;28;1815;-73
2022/07/16 02:03:56;;;;;;;;;;;;;;;23.16;34.29;96012.09;10503738;28;1773;-74
2022/07/16 02:08:56;;;;;;;;;;;;;;;23.15;34.29;96007.84;10518143;28;2016;-73
2022/07/16 02:13:56;;;;;;;;;;;;;;;23.10;33.99;96010.56;10522860;28;2185;-73
2022/07/16 02:18:56;;;;;;;;;;;;;;;23.10;34.25;96018.50;10521009;28;1787;-71
2022/07/16 02:23:57;;;;;;;;;;;;;;;23.11;33.84;96014.78;10515706;28;1919;-72
2022/07/16 02:28:57;;;;;;;;;;;;;;;23.08;34.03;96015.34;10505920;28;1910;-73
2022/07/16 02:33:58;;;;;;;;;;;;;;;23.03;34.15;96018.03;10520550;28;1839;-73
2022/07/16 02:38:58;;;;;;;;;;;;;;;23.05;34.23;96018.56;10518201;28;1892;-73
2022/07/16 02:43:59;;;;;;;;;;;;;;;23.06;34.25;96017.50;10520272;28;1886;-74
2022/07/16 02:48:59;;;;;;;;;;;;;;;23.06;34.08;96022.78;10508260;28;1913;-74
2022/07/16 02:54:00;;;;;;;;;;;;;;;23.06;34.00;96014.84;10503437;28;1787;-74
2022/07/16 02:59:01;;;;;;;;;;;;;;;23.05;34.17;96022.00;10499795;28;1872;-73
2022/07/16 03:04:01;;;;;;;;;;;;;;;23.05;34.36;96024.63;10518912;28;1877;-73
2022/07/16 03:09:02;;;;;;;;;;;;;;;23.05;34.25;96026.47;10516612;28;1970;-73
2022/07/16 03:14:02;;;;;;;;;;;;;;;23.05;34.35;96031.78;10517918;28;1848;-73
2022/07/16 03:19:03;;;;;;;;;;;;;;;23.01;34.23;96031.56;10520482;28;1820;-73
2022/07/16 03:24:03;;;;;;;;;;;;;;;23.02;34.50;96032.34;10500441;28;1826;-73
2022/07/16 03:29:04;;;;;;;;;;;;;;;23.04;34.21;96040.78;10517708;28;1918;-72
2022/07/16 03:34:05;;;;;;;;;;;;;;;23.01;34.64;96041.34;10517472;28;1712;-72
2022/07/16 03:39:05;;;;;;;;;;;;;;;22.99;34.37;96041.63;10514010;28;1953;-74
2022/07/16 03:44:06;;;;;;;;;;;;;;;23.00;34.66;96037.13;10503220;28;1855;-73
2022/07/16 03:49:06;;;;;;;;;;;;;;;23.00;34.81;96039.78;10518842;28;1914;-73
2022/07/16 03:54:07;;;;;;;;;;;;;;;23.00;34.71;96042.41;10523908;28;2018;-72
2022/07/16 03:59:10;;;;;;;;;;;;;;;23.02;34.79;96051.63;10512103;28;1863;-73
2022/07/16 04:04:10;;;;;;;;;;;;;;;23.00;34.77;96050.34;10518228;28;1892;-73
2022/07/16 04:09:11;;;;;;;;;;;;;;;23.04;35.04;96054.00;10511247;28;2251;-72
2022/07/16 04:14:11;;;;;;;;;;;;;;;23.04;35.07;96064.59;10524557;28;1804;-73
2022/07/16 04:19:11;;;;;;;;;;;;;;;23.04;35.09;96061.94;10518813;28;1764;-73
2022/07/16 04:24:12;;;;;;;;;;;;;;;23.04;35.52;96067.22;10523730;28;1497;-73
2022/07/16 04:29:13;;;;;;;;;;;;;;;23.04;35.19;96065.34;10519882;28;1968;-74
2022/07/16 04:34:13;;;;;;;;;;;;;;;23.04;35.38;96067.22;10481965;28;1842;-74
2022/07/16 04:39:14;;;;;;;;;;;;;;;23.08;35.50;96068.25;10517903;28;1800;-74
2022/07/16 04:44:15;;;;;;;;;;;;;;;23.08;35.58;96076.16;10485242;28;1816;-73
2022/07/16 04:49:15;;;;;;;;;;;;;;;23.09;35.67;96075.88;10512173;28;2199;-73
2022/07/16 04:54:15;;;;;;;;;;;;;;;23.11;35.65;96083.53;10518835;28;1837;-73
2022/07/16 04:59:15;;;;;;;;;;;;;;;23.09;35.67;96086.47;10529410;28;1843;-73
2022/07/16 05:04:16;;;;;;;;;;;;;;;23.09;35.51;96080.38;10518250;28;1809;-74
2022/07/16 05:09:16;;;;;;;;;;;;;;;23.10;35.57;96089.91;10522207;28;1977;-73
2022/07/16 05:14:16;;;;;;;;;;;;;;;23.09;35.60;96088.31;10501377;28;2123;-73
2022/07/16 05:19:18;;;;;;;;;;;;;;;23.08;35.36;96095.44;10524914;28;2169;-72
2022/07/16 05:24:19;;;;;;;;;;;;;;;23.10;35.75;96097.84;10506610;28;1968;-72
2022/07/16 05:29:19;;;;;;;;;;;;;;;23.11;35.92;96094.09;10527146;28;1961;-73
2022/07/16 05:34:19;;;;;;;;;;;;;;;23.13;35.76;96092.75;10517667;28;1960;-73
2022/07/16 05:39:19;;;;;;;;;;;;;;;23.15;35.66;96103.03;10503586;28;1911;-73
2022/07/16 05:44:20;;;;;;;;;;;;;;;23.13;35.30;96098.06;10515262;28;1854;-73
2022/07/16 05:49:20;;;;;;;;;;;;;;;23.13;35.70;96098.06;10511185;28;1933;-72
2022/07/16 05:54:22;;;;;;;;;;;;;;;23.21;36.29;96104.56;10510943;28;1859;-71
2022/07/16 05:59:22;;;;;;;;;;;;;;;23.23;36.63;96107.72;10508054;28;1856;-74
2022/07/16 06:04:22;;;;;;;;;;;;;;;23.26;36.61;96107.16;10522262;28;1843;-75
2022/07/16 06:09:22;;;;;;;;;;;;;;;23.23;36.70;96102.44;10502129;28;1969;-74
2022/07/16 06:14:23;;;;;;;;;;;;;;;23.21;36.44;96110.66;10517569;28;1782;-75
2022/07/16 06:19:23;;;;;;;;;;;;;;;23.18;36.31;96105.94;10522228;28;1813;-75
2022/07/16 06:24:24;;;;;;;;;;;;;;;22.98;35.49;96115.94;10520861;28;1820;-72
2022/07/16 06:29:25;;;;;;;;;;;;;;;22.91;36.02;96115.47;10515592;28;1956;-73
2022/07/16 06:34:26;;;;;;;;;;;;;;;22.61;34.87;96122.59;10522786;28;1902;-74
2022/07/16 06:39:27;;;;;;;;;;;;;;;22.61;35.24;96119.97;10504723;28;1851;-73
2022/07/16 06:44:27;;;;;;;;;;;;;;;22.64;35.45;96124.72;10507220;28;1804;-73
2022/07/16 06:49:28;;;;;;;;;;;;;;;22.48;34.68;96127.72;10524161;28;1963;-74
2022/07/16 06:54:28;;;;;;;;;;;;;;;22.18;34.55;96123.44;10503426;28;1837;-74
2022/07/16 06:59:28;;;;;;;;;;;;;;;22.10;34.81;96131.13;10522655;28;1831;-75
2022/07/16 07:04:29;;;;;;;;;;;;;;;22.32;35.38;96124.38;10488062;28;1853;-73
2022/07/16 07:09:29;;;;;;;;;;;;;;;22.30;34.60;96126.50;10495389;28;1902;-75
2022/07/16 07:14:37;;;;;;;;;;;;;;;22.11;35.26;96127.44;10506077;28;2259;-73
2022/07/16 07:19:38;;;;;;;;;;;;;;;22.23;35.25;96119.97;10515093;28;1784;-73
2022/07/16 07:24:39;;;;;;;;;;;;;;;22.30;34.62;96131.78;10521815;28;1703;-74
2022/07/16 07:29:41;;;;;;;;;;;;;;;22.20;34.53;96121.31;10520920;28;1910;-74
2022/07/16 07:34:41;;;;;;;;;;;;;;;22.29;35.06;96124.94;10512055;28;1845;-71
2022/07/16 07:39:41;;;;;;;;;;;;;;;22.42;35.04;96126.94;10516703;28;1875;-73
2022/07/16 07:44:42;;;;;;;;;;;;;;;22.51;35.00;96127.16;10523339;28;1895;-74
2022/07/16 07:49:42;;;;;;;;;;;;;;;22.57;34.42;96123.41;10515203;28;1974;-73
2022/07/16 07:54:45;;;;;;;;;;;;;;;22.53;34.42;96120.53;10499243;28;1890;-72
2022/07/16 07:59:46;;;;;;;;;;;;;;;22.60;34.67;96115.75;10499916;28;1803;-73
2022/07/16 08:04:47;;;;;;;;;;;;;;;22.65;34.41;96125.47;10498532;28;2205;-72
2022/07/16 08:09:48;;;;;;;;;;;;;;;22.53;34.49;96128.47;10514350;28;1918;-71
2022/07/16 08:14:48;;;;;;;;;;;;;;;22.61;34.69;96130.53;10501768;28;1866;-71
2022/07/16 08:19:48;;;;;;;;;;;;;;;22.57;34.40;96132.13;10513326;28;1843;-72
2022/07/16 08:30:08;;;;;;;;;;;;;;;22.64;34.14;96131.84;10514705;28;1906;-73
2022/07/16 08:35:08;;;;;;;;;;;;;;;22.54;34.09;96132.69;10527886;28;1903;-72
2022/07/16 08:40:09;;;;;;;;;;;;;;;22.64;34.27;96130.00;10509152;28;1815;-72
2022/07/16 08:45:10;;;;;;;;;;;;;;;22.67;34.10;96127.84;10512741;28;1820;-71
2022/07/16 08:50:11;;;;;;;;;;;;;;;22.71;33.88;96137.56;10509529;28;1902;-72
2022/07/16 08:55:11;;;;;;;;;;;;;;;22.73;34.23;96138.09;10524192;28;1851;-71
2022/07/16 09:00:12;;;;;;;;;;;;;;;22.77;34.25;96135.69;10526048;28;1789;-70
2022/07/16 09:05:13;;;;;;;;;;;;;;;22.82;34.17;96147.00;10525598;28;1880;-72
2022/07/16 09:10:13;;;;;;;;;;;;;;;22.67;33.53;96131.25;10540692;28;1968;-72
2022/07/16 09:15:20;;;;;;;;;;;;;;;22.75;33.74;96133.31;10516258;28;1978;-71
2022/07/16 09:20:30;;;;;;;;;;;;;;;22.79;33.48;96138.84;10525551;28;1776;-71
2022/07/16 09:25:31;;;;;;;;;;;;;;;22.78;33.25;96131.97;10509023;28;1916;-72
2022/07/16 09:30:31;;;;;;;;;;;;;;;22.81;33.36;96134.06;10525442;28;1926;-72
2022/07/16 09:35:31;;;;;;;;;;;;;;;22.85;32.84;96132.44;10525411;28;1792;-72
2022/07/16 09:40:32;;;;;;;;;;;;;;;22.90;32.89;96125.25;10524941;28;1876;-71
2022/07/16 09:45:32;;;;;;;;;;;;;;;22.93;33.05;96131.84;10525018;28;1815;-72
2022/07/16 09:50:36;;;;;;;;;;;;;;;22.94;33.35;96120.97;10525375;28;2044;-71
2022/07/16 09:55:52;;;;;;;;;;;;;;;22.98;33.27;96119.34;10535200;28;1859;-71
2022/07/16 10:00:53;;;;;;;;;;;;;;;22.97;33.06;96119.63;10519501;28;1768;-71
2022/07/16 10:05:53;;;;;;;;;;;;;;;23.02;33.32;96116.97;10518416;28;1586;-71
2022/07/16 10:10:53;;;;;;;;;;;;;;;23.03;33.25;96121.16;10519914;28;1926;-72
2022/07/16 10:15:54;;;;;;;;;;;;;;;23.07;33.15;96112.41;10521973;28;1963;-72
2022/07/16 10:21:04;;;;;;;;;;;;;;;23.11;32.72;96117.91;10535925;28;1886;-72
2022/07/16 10:26:06;;;;;;;;;;;;;;;23.07;32.32;96109.75;10513739;28;2158;-74
2022/07/16 10:31:25;;;;;;;;;;;;;;;23.08;32.62;96111.31;10506079;28;1981;-74
2022/07/16 10:36:42;;;;;;;;;;;;;;;23.11;32.62;96120.53;10525370;28;1862;-74
2022/07/16 10:41:49;;;;;;;;;;;;;;;23.15;32.91;96118.91;10505597;28;1796;-74
2022/07/16 10:46:54;;;;;;;;;;;;;;;23.19;33.11;96112.78;10522203;28;1975;-74
2022/07/16 10:51:55;;;;;;;;;;;;;;;23.22;33.16;96108.81;10521004;28;1771;-74
2022/07/16 10:56:59;;;;;;;;;;;;;;;23.26;33.41;96109.81;10520370;28;1993;-74
2022/07/16 11:02:00;;;;;;;;;;;;;;;23.25;32.94;96100.28;10518635;28;1792;-73
2022/07/16 11:07:03;;;;;;;;;;;;;;;23.27;33.16;96106.88;10519160;28;1913;-73
2022/07/16 11:12:08;;;;;;;;;;;;;;;23.28;33.16;96105.81;10513641;28;1913;-73
2022/07/16 11:17:09;;;;;;;;;;;;;;;23.31;32.97;96105.25;10505831;28;1849;-74
2022/07/16 11:22:12;;;;;;;;;;;;;;;23.34;33.07;96093.34;10534208;28;1914;-73
2022/07/16 11:27:12;;;;;;;;;;;;;;;;;;10525454;28;1931;-74
2022/07/16 11:32:14;;;;;;;;;;;;;;;23.37;33.26;96109.44;10520101;28;1811;-74
2022/07/16 11:37:15;;;;;;;;;;;;;;;23.39;33.51;96085.34;10525656;28;1851;-74
2022/07/16 11:42:22;;;;;;;;;;;;;;;23.43;33.64;96102.25;10516594;28;1964;-74
2022/07/16 11:47:23;;;;;;;;;;;;;;;23.44;33.14;96099.31;10533549;28;1977;-73
2022/07/16 11:52:26;;;;;;;;;;;;;;;23.46;33.53;96104.31;10519544;28;1899;-73
2022/07/16 11:57:27;;;;;;;;;;;;;;;23.51;33.39;96091.03;10500741;28;1850;-73
2022/07/16 12:02:28;;;;;;;;;;;;;;;23.51;33.17;96106.13;10516315;28;1820;-74
2022/07/16 12:07:29;;;;;;;;;;;;;;;23.48;32.58;96106.66;10500798;28;1971;-74
2022/07/16 12:12:30;;;;;;;;;;;;;;;23.45;32.58;96100.88;10518015;28;1785;-74
2022/07/16 12:17:31;;;;;;;;;;;;;;;23.46;32.37;96101.66;10511894;28;1840;-74
2022/07/16 12:22:47;;;;;;;;;;;;;;;23.49;32.57;96109.06;10514693;28;1958;-74
2022/07/16 12:27:51;;;;;;;;;;;;;;;23.55;33.25;96097.34;10513843;28;1898;-73
2022/07/16 12:32:53;;;;;;;;;;;;;;;23.57;33.36;96113.72;10514416;28;1823;-74
2022/07/16 12:37:53;;;;;;;;;;;;;;;23.61;33.19;96101.50;10516204;28;1808;-74
2022/07/16 12:42:53;;;;;;;;;;;;;;;23.58;33.18;96106.53;10496301;28;1934;-74
2022/07/16 12:47:54;;;;;;;;;;;;;;;23.63;33.31;96102.00;10515343;28;1910;-74
2022/07/16 12:52:54;;;;;;;;;;;;;;;23.64;33.81;96100.91;10505344;28;1971;-74
2022/07/16 13:03:14;;;;;;;;;;;;;;;23.72;33.88;96094.22;10503392;28;1800;-73
2022/07/16 13:08:15;;;;;;;;;;;;;;;23.73;34.16;96093.13;10495661;28;1902;-73
2022/07/16 13:13:16;;;;;;;;;;;;;;;23.73;33.86;96095.75;10504221;28;2181;-73
2022/07/16 13:18:16;;;;;;;;;;;;;;;23.74;33.70;96094.72;10514356;28;1800;-73
2022/07/16 13:23:16;;;;;;;;;;;;;;;23.74;33.06;96092.81;10516307;28;1830;-75
2022/07/16 13:28:17;;;;;;;;;;;;;;;23.71;33.85;96093.41;10517454;28;1913;-74
2022/07/16 13:33:17;;;;;;;;;;;;;;;23.73;33.59;96091.28;10505182;28;1836;-73
2022/07/16 13:38:17;;;;;;;;;;;;;;;23.77;33.91;96084.31;10525256;28;1827;-74
2022/07/16 13:43:19;;;;;;;;;;;;;;;23.77;33.75;96076.38;10525150;28;1835;-74
2022/07/16 13:48:19;;;;;;;;;;;;;;;23.80;34.15;96075.03;10519961;28;1977;-74
2022/07/16 13:53:19;;;;;;;;;;;;;;;23.80;33.92;96096.97;10507325;28;1921;-74
2022/07/16 13:58:23;;;;;;;;;;;;;;;23.82;33.91;96083.47;10517757;28;1831;-75
2022/07/16 14:03:27;;;;;;;;;;;;;;;23.81;33.25;96101.22;10525509;28;1775;-74
2022/07/16 14:08:28;;;;;;;;;;;;;;;23.80;33.55;96099.63;10513738;28;1931;-74
2022/07/16 14:13:28;;;;;;;;;;;;;;;23.80;33.80;96086.38;10520856;28;1823;-73
2022/07/16 14:18:28;;;;;;;;;;;;;;;23.80;33.03;96083.75;10522879;28;1796;-74
2022/07/16 14:23:29;;;;;;;;;;;;;;;23.82;33.66;96094.06;10506309;28;1974;-75
2022/07/16 14:28:29;;;;;;;;;;;;;;;23.78;33.82;96101.78;10512961;28;1914;-74
2022/07/16 14:33:30;;;;;;;;;;;;;;;23.82;33.33;96104.66;10521791;28;1860;-75
2022/07/16 14:38:31;;;;;;;;;;;;;;;23.80;33.41;96118.16;10517176;28;1884;-75
2022/07/16 14:43:32;;;;;;;;;;;;;;;23.79;32.95;96111.31;10520000;28;1831;-74
2022/07/16 14:48:32;;;;;;;;;;;;;;;23.76;32.92;96106.56;10518305;28;1933;-74
2022/07/16 14:53:32;;;;;;;;;;;;;;;23.77;32.60;96125.88;10516781;28;1880;-74
2022/07/16 14:58:35;;;;;;;;;;;;;;;23.74;32.92;96111.34;10516596;28;1842;-74
2022/07/16 15:03:35;;;;;;;;;;;;;;;23.78;32.68;96109.72;10523500;28;1886;-74
2022/07/16 15:08:36;;;;;;;;;;;;;;;23.74;32.35;96119.28;10518180;28;1969;-73
2022/07/16 15:13:36;;;;;;;;;;;;;;;23.75;32.13;96105.00;10499736;28;1910;-72
2022/07/16 15:18:36;;;;;;;;;;;;;;;23.78;32.44;96127.47;10519599;28;1883;-73
2022/07/16 15:23:37;;;;;;;;;;;;;;;23.79;32.60;96118.44;10499477;28;1559;-71
2022/07/16 15:28:37;;;;;;;;;;;;;;;23.80;32.85;96117.38;10498488;28;1977;-74
2022/07/16 15:33:37;;;;;;;;;;;;;;;23.80;32.71;96118.16;10514008;28;1845;-72
2022/07/16 15:38:37;;;;;;;;;;;;;;;23.82;32.92;96112.59;10515046;28;1796;-70
2022/07/16 15:43:38;;;;;;;;;;;;;;;23.88;32.87;96122.84;10514353;28;1814;-72
2022/07/16 15:48:38;;;;;;;;;;;;;;;23.89;33.21;96128.91;10498006;28;2126;-71
2022/07/16 15:53:38;;;;;;;;;;;;;;;23.89;33.29;96121.75;10483502;28;2140;-73
2022/07/16 15:58:39;;;;;;;;;;;;;;;23.90;33.55;96131.28;10513692;28;1887;-73
2022/07/16 16:03:39;;;;;;;;;;;;;;;23.91;33.14;96127.53;10513190;28;1828;-74
2022/07/16 16:08:39;;;;;;;;;;;;;;;23.89;33.13;96145.59;10508971;28;1943;-72
2022/07/16 16:13:40;;;;;;;;;;;;;;;23.90;32.92;96133.94;10522134;28;1939;-72
2022/07/16 16:18:40;;;;;;;;;;;;;;;23.86;32.71;96132.94;10513364;28;2026;-72
2022/07/16 16:23:40;;;;;;;;;;;;;;;23.84;33.12;96134.28;10518910;28;1904;-72
2022/07/16 16:28:42;;;;;;;;;;;;;;;23.89;33.07;96142.13;10506834;28;1974;-72
2022/07/16 16:33:42;;;;;;;;;;;;;;;23.87;33.07;96150.38;10511831;28;1839;-71
2022/07/16 16:38:42;;;;;;;;;;;;;;;23.89;33.04;96139.50;10531857;28;2040;-72
2022/07/16 16:43:44;;;;;;;;;;;;;;;23.90;33.21;96141.06;10515288;28;1816;-73
2022/07/16 16:48:44;;;;;;;;;;;;;;;23.87;33.01;96139.00;10511098;28;1977;-72
2022/07/16 16:53:45;;;;;;;;;;;;;;;23.89;33.07;96148.22;10486729;28;1864;-71
2022/07/16 16:58:46;;;;;;;;;;;;;;;23.91;33.19;96155.88;10518025;28;1784;-72
2022/07/16 17:03:46;;;;;;;;;;;;;;;23.88;33.17;96154.63;10523722;28;1827;-72
2022/07/16 17:08:47;;;;;;;;;;;;;;;23.90;32.81;96156.97;10505636;28;1980;-72
2022/07/16 17:13:48;;;;;;;;;;;;;;;23.83;32.09;96153.88;10524328;28;4065;-72
2022/07/16 17:18:48;;;;;;;;;;;;;;;23.82;32.55;96162.91;10509612;28;1839;-72
2022/07/16 17:23:49;;;;;;;;;;;;;;;23.81;32.52;96164.75;10521208;28;2020;-72
2022/07/16 17:28:49;;;;;;;;;;;;;;;23.87;32.50;96176.06;10484075;28;1914;-74
2022/07/16 17:33:49;;;;;;;;;;;;;;;23.82;32.27;96179.53;10518285;28;2232;-73
2022/07/16 17:38:49;;;;;;;;;;;;;;;23.78;31.70;96177.78;10519694;28;1816;-73
2022/07/16 17:43:50;;;;;;;;;;;;;;;23.77;31.69;96182.28;10509617;28;2028;-73
2022/07/16 17:54:09;;;;;;;;;;;;;;;23.75;31.39;96184.41;10521091;28;1789;-73
2022/07/16 17:59:09;;;;;;;;;;;;;;;23.73;31.10;96193.69;10501701;28;1749;-71
2022/07/16 18:04:10;;;;;;;;;;;;;;;23.70;30.90;96191.63;10527617;28;1846;-72
2022/07/16 18:09:10;;;;;;;;;;;;;;;23.68;30.64;96199.06;10519251;28;1937;-70
2022/07/16 18:14:11;;;;;;;;;;;;;;;23.67;30.99;96200.94;10520003;28;1834;-71
2022/07/16 18:19:11;;;;;;;;;;;;;;;23.67;30.60;96210.72;10522688;28;1824;-72
2022/07/16 18:24:12;;;;;;;;;;;;;;;23.64;30.46;96212.06;10518127;28;1795;-71
2022/07/16 18:29:15;;;;;;;;;;;;;;;23.64;30.80;96225.28;10519821;28;1917;-73
2022/07/16 18:34:15;;;;;;;;;;;;;;;23.65;30.80;96226.09;10527206;28;1820;-72
2022/07/16 18:39:16;;;;;;;;;;;;;;;23.64;30.79;96230.59;10510250;28;1796;-72
2022/07/16 18:44:17;;;;;;;;;;;;;;;23.65;30.68;96240.13;10523872;28;1913;-72
2022/07/16 18:49:17;;;;;;;;;;;;;;;23.65;30.76;96245.41;10516499;28;1913;-72
2022/07/16 18:54:17;;;;;;;;;;;;;;;23.65;30.69;96248.06;10504504;28;1915;-71
2022/07/16 18:59:18;;;;;;;;;;;;;;;23.67;31.05;96253.06;10484429;28;1958;-72
2022/07/16 19:04:18;;;;;;;;;;;;;;;23.67;30.99;96261.81;10485897;28;2223;-72
2022/07/16 19:09:18;;;;;;;;;;;;;;;23.65;30.73;96263.13;10503149;28;1981;-71
2022/07/16 19:14:18;;;;;;;;;;;;;;;23.63;30.68;96274.00;10521671;28;1949;-71
2022/07/16 19:19:20;;;;;;;;;;;;;;;23.63;30.86;96289.09;10519202;28;1751;-72
2022/07/16 19:24:20;;;;;;;;;;;;;;;23.62;31.01;96293.59;10516914;28;2144;-72
2022/07/16 19:29:20;;;;;;;;;;;;;;;23.62;30.69;96296.25;10514420;28;1909;-71
2022/07/16 19:34:21;;;;;;;;;;;;;;;23.62;30.80;96301.53;10519925;28;1832;-72
2022/07/16 19:39:21;;;;;;;;;;;;;;;23.61;31.07;96299.97;10520403;28;1906;-71
2022/07/16 19:44:21;;;;;;;;;;;;;;;23.61;30.96;96307.13;10524064;28;2026;-72
2022/07/16 19:49:22;;;;;;;;;;;;;;;23.61;30.94;96312.41;10514424;28;1967;-71
2022/07/16 19:54:22;;;;;;;;;;;;;;;23.60;31.05;96326.69;10523234;28;1804;-72
2022/07/16 19:59:22;;;;;;;;;;;;;;;23.59;30.57;96319.84;10519898;28;1868;-72
2022/07/16 20:04:23;;;;;;;;;;;;;;;23.58;30.77;96329.63;10520309;28;1934;-71
2022/07/16 20:09:24;;;;;;;;;;;;;;;23.57;30.86;96351.09;10509593;28;1953;-71
2022/07/16 20:14:24;;;;;;;;;;;;;;;23.55;30.73;96353.22;10520727;28;1859;-72
2022/07/16 20:19:25;;;;;;;;;;;;;;;23.57;30.81;96362.47;10503893;28;1802;-72
2022/07/16 20:24:25;;;;;;;;;;;;;;;23.56;30.83;96365.38;10515981;28;2160;-72
2022/07/16 20:29:26;;;;;;;;;;;;;;;23.55;30.90;96364.59;10502137;28;1914;-71
2022/07/16 20:34:26;;;;;;;;;;;;;;;23.55;30.75;96369.91;10519020;28;1835;-71
2022/07/16 20:39:27;;;;;;;;;;;;;;;23.54;30.82;96364.84;10500798;28;1876;-71
2022/07/16 20:44:28;;;;;;;;;;;;;;;23.55;31.13;96369.09;10521886;28;1837;-72
2022/07/16 20:49:28;;;;;;;;;;;;;;;23.56;31.05;96368.81;10514694;28;1910;-72
2022/07/16 20:54:28;;;;;;;;;;;;;;;23.58;31.03;96379.91;10499120;28;1862;-70
2022/07/16 20:59:29;;;;;;;;;;;;;;;23.58;31.35;96382.56;10516525;28;1866;-70
2022/07/16 21:04:29;;;;;;;;;;;;;;;23.60;31.39;96391.00;10505287;28;1858;-71
2022/07/16 21:09:30;;;;;;;;;;;;;;;23.60;31.13;96398.94;10495333;28;1968;-71
2022/07/16 21:14:30;;;;;;;;;;;;;;;23.60;31.20;96391.00;10487198;28;1870;-71
2022/07/16 21:19:30;;;;;;;;;;;;;;;23.60;31.43;96391.00;10513371;28;1844;-71
2022/07/16 21:24:30;;;;;;;;;;;;;;;23.61;31.66;96400.53;10497307;28;1781;-71
2022/07/16 21:29:31;;;;;;;;;;;;;;;23.61;31.39;96402.41;10514393;28;1910;-72
2022/07/16 21:34:31;;;;;;;;;;;;;;;23.62;31.63;96417.22;10499023;28;1844;-71
2022/07/16 21:39:31;;;;;;;;;;;;;;;23.62;31.51;96418.00;10520056;28;1898;-72
2022/07/16 21:44:32;;;;;;;;;;;;;;;23.61;31.62;96418.28;10522554;28;1955;-71
2022/07/16 21:49:33;;;;;;;;;;;;;;;23.60;31.54;96420.13;10520575;28;1910;-71
2022/07/16 21:54:33;;;;;;;;;;;;;;;23.59;31.76;96423.84;10519212;28;1915;-72
2022/07/16 21:59:33;;;;;;;;;;;;;;;23.60;31.37;96424.63;10518893;28;1705;-72
2022/07/16 22:04:34;;;;;;;;;;;;;;;23.59;31.77;96431.78;10507922;28;1764;-72
2022/07/16 22:09:34;;;;;;;;;;;;;;;23.59;31.72;96433.63;10516763;28;1977;-71
2022/07/16 22:14:35;;;;;;;;;;;;;;;23.59;31.91;96437.09;10524842;28;1848;-71
2022/07/16 22:24:54;;;;;;;;;;;;;;;23.57;31.80;96449.81;10510753;28;1821;-71
2022/07/16 22:29:54;;;;;;;;;;;;;;;23.58;31.84;96442.63;10520807;28;1910;-72
2022/07/16 22:34:55;;;;;;;;;;;;;;;23.59;31.91;96452.16;10521272;28;1788;-72
2022/07/16 22:39:55;;;;;;;;;;;;;;;23.60;31.95;96453.72;10518149;28;1851;-73
2022/07/16 22:44:56;;;;;;;;;;;;;;;23.53;31.90;96455.91;10508286;28;1821;-74
2022/07/16 22:49:57;;;;;;;;;;;;;;;23.31;31.69;96458.91;10486801;28;2024;-72
2022/07/16 22:54:57;;;;;;;;;;;;;;;23.23;31.91;96457.66;10519275;28;1871;-73
2022/07/16 22:59:57;;;;;;;;;;;;;;;23.17;31.79;96452.66;10517356;28;1841;-72
2022/07/16 23:04:57;;;;;;;;;;;;;;;23.07;32.01;96458.81;10521460;28;1840;-71
2022/07/16 23:09:58;;;;;;;;;;;;;;;23.02;32.02;96455.41;10519167;28;1963;-70
2022/07/16 23:15:00;;;;;;;;;;;;;;;23.00;32.31;96457.53;10516356;28;1828;-70
2022/07/16 23:20:01;;;;;;;;;;;;;;;22.94;32.61;96466.50;10520184;28;1887;-74
2022/07/16 23:25:01;;;;;;;;;;;;;;;22.89;32.79;96466.56;10519052;28;1562;-71
2022/07/16 23:30:02;;;;;;;;;;;;;;;22.81;33.09;96467.13;10520394;28;1910;-71
2022/07/16 23:35:03;;;;;;;;;;;;;;;22.79;32.88;96471.88;10519677;28;2172;-71
2022/07/16 23:40:07;;;;;;;;;;;;;;;22.72;33.11;96456.31;10521088;28;2118;-71
2022/07/16 23:45:07;;;;;;;;;;;;;;;22.64;33.05;96457.66;10517619;28;1788;-72
2022/07/16 23:50:08;;;;;;;;;;;;;;;22.62;32.89;96449.22;10522174;28;1983;-73
2022/07/16 23:55:08;;;;;;;;;;;;;;;22.53;33.15;96453.44;10517348;28;1742;-70
